Terminal Aerodrome Forecast
Issued by NWS

Home | Current Version | Previous Version | Text Only | Print | Product List | Glossary Off
Versions: 1 2 3 4 5 6 7 8 9 10 11 12 13 14 15 16 17 18

000
FTUS43 KMPX 241442 AAA
TAFRNH
TAF AMD
KRNH 241442Z 2415/2512 15012G18KT P6SM SCT015 BKN250
     FM242300 13009KT P6SM FEW012 OVC090
     FM250300 14007KT 1 1/2SM -SN BR OVC009
      TEMPO 2506/2509 3/4SM -SN VV005
     FM251000 17005KT 3SM -SN BR OVC011=

USA.gov is the U.S. government's official web portal to all federal, state and local government web resources and services.